sensor_id;sensor_type;location;lat;lon;timestamp;temperature;humidity
18207;DHT22;9229;52.354;20.886;2023-02-01T00:04:15;3.30;99.90
18207;DHT22;9229;52.354;20.886;2023-02-01T00:09:18;3.40;99.90
18207;DHT22;9229;52.354;20.886;2023-02-01T00:14:20;3.40;99.90
18207;DHT22;9229;52.354;20.886;2023-02-01T00:19:25;3.40;99.90
18207;DHT22;9229;52.354;20.886;2023-02-01T00:24:36;3.50;99.90
18207;DHT22;9229;52.354;20.886;2023-02-01T00:29:39;3.50;99.90
18207;DHT22;9229;52.354;20.886;2023-02-01T00:34:43;3.50;99.90
18207;DHT22;9229;52.354;20.886;2023-02-01T00:39:45;3.50;99.90
18207;DHT22;9229;52.354;20.886;2023-02-01T00:44:48;3.50;99.90
18207;DHT22;9229;52.354;20.886;2023-02-01T00:49:52;3.60;99.90
18207;DHT22;9229;52.354;20.886;2023-02-01T00:54:54;3.50;99.90
18207;DHT22;9229;52.354;20.886;2023-02-01T00:59:56;3.50;99.90
18207;DHT22;9229;52.354;20.886;2023-02-01T01:05:02;3.50;99.90
18207;DHT22;9229;52.354;20.886;2023-02-01T01:10:04;3.50;99.90
18207;DHT22;9229;52.354;20.886;2023-02-01T01:15:08;3.40;99.90
18207;DHT22;9229;52.354;20.886;2023-02-01T01:20:12;3.40;99.90
18207;DHT22;9229;52.354;20.886;2023-02-01T01:25:15;3.30;99.90
18207;DHT22;9229;52.354;20.886;2023-02-01T01:30:17;3.20;99.90
18207;DHT22;9229;52.354;20.886;2023-02-01T01:35:20;3.20;99.90
18207;DHT22;9229;52.354;20.886;2023-02-01T01:40:22;3.20;99.90
18207;DHT22;9229;52.354;20.886;2023-02-01T01:45:29;3.20;99.90
18207;DHT22;9229;52.354;20.886;2023-02-01T01:50:35;3.20;99.90
18207;DHT22;9229;52.354;20.886;2023-02-01T01:55:42;3.20;99.90
18207;DHT22;9229;52.354;20.886;2023-02-01T02:00:45;3.10;99.90
18207;DHT22;9229;52.354;20.886;2023-02-01T02:05:50;3.20;99.90
18207;DHT22;9229;52.354;20.886;2023-02-01T02:10:53;3.20;99.90
18207;DHT22;9229;52.354;20.886;2023-02-01T02:16:11;3.10;99.90
18207;DHT22;9229;52.354;20.886;2023-02-01T02:21:26;3.10;99.90
18207;DHT22;9229;52.354;20.886;2023-02-01T02:27:01;3.20;99.90
18207;DHT22;9229;52.354;20.886;2023-02-01T02:37:54;3.20;99.90
18207;DHT22;9229;52.354;20.886;2023-02-01T02:43:05;3.20;99.90
18207;DHT22;9229;52.354;20.886;2023-02-01T02:48:31;3.30;99.90
18207;DHT22;9229;52.354;20.886;2023-02-01T02:53:39;3.30;99.90
18207;DHT22;9229;52.354;20.886;2023-02-01T02:59:21;3.30;99.90
18207;DHT22;9229;52.354;20.886;2023-02-01T03:04:43;3.30;99.90
18207;DHT22;9229;52.354;20.886;2023-02-01T03:09:47;3.30;99.90
18207;DHT22;9229;52.354;20.886;2023-02-01T03:14:54;3.30;99.90
18207;DHT22;9229;52.354;20.886;2023-02-01T03:20:00;3.30;99.90
18207;DHT22;9229;52.354;20.886;2023-02-01T03:25:07;3.30;99.90
18207;DHT22;9229;52.354;20.886;2023-02-01T03:30:17;3.20;99.90
18207;DHT22;9229;52.354;20.886;2023-02-01T03:35:25;3.20;99.90
18207;DHT22;9229;52.354;20.886;2023-02-01T03:40:32;3.10;99.90
18207;DHT22;9229;52.354;20.886;2023-02-01T03:45:39;3.10;99.90
18207;DHT22;9229;52.354;20.886;2023-02-01T03:50:47;3.00;99.90
18207;DHT22;9229;52.354;20.886;2023-02-01T03:55:54;3.00;99.90
18207;DHT22;9229;52.354;20.886;2023-02-01T04:00:57;3.00;99.90
18207;DHT22;9229;52.354;20.886;2023-02-01T04:06:01;2.90;99.90
18207;DHT22;9229;52.354;20.886;2023-02-01T04:11:05;2.90;99.90
18207;DHT22;9229;52.354;20.886;2023-02-01T04:16:07;2.90;99.90
18207;DHT22;9229;52.354;20.886;2023-02-01T04:21:09;2.90;99.90
18207;DHT22;9229;52.354;20.886;2023-02-01T04:26:13;2.90;99.90
18207;DHT22;9229;52.354;20.886;2023-02-01T04:31:17;3.00;99.90
18207;DHT22;9229;52.354;20.886;2023-02-01T04:36:25;3.00;99.90
18207;DHT22;9229;52.354;20.886;2023-02-01T04:41:29;3.00;99.90
18207;DHT22;9229;52.354;20.886;2023-02-01T04:46:31;3.10;99.90
18207;DHT22;9229;52.354;20.886;2023-02-01T04:51:33;3.10;99.90
18207;DHT22;9229;52.354;20.886;2023-02-01T04:56:36;3.10;99.90
18207;DHT22;9229;52.354;20.886;2023-02-01T05:01:38;3.20;99.90
18207;DHT22;9229;52.354;20.886;2023-02-01T05:06:40;3.20;99.90
18207;DHT22;9229;52.354;20.886;2023-02-01T05:11:44;3.20;99.90
18207;DHT22;9229;52.354;20.886;2023-02-01T05:17:03;3.30;99.90
18207;DHT22;9229;52.354;20.886;2023-02-01T05:22:05;3.30;99.90
18207;DHT22;9229;52.354;20.886;2023-02-01T05:27:09;3.30;99.90
18207;DHT22;9229;52.354;20.886;2023-02-01T05:32:11;3.30;99.90
18207;DHT22;9229;52.354;20.886;2023-02-01T05:37:13;3.30;99.90
18207;DHT22;9229;52.354;20.886;2023-02-01T05:42:17;3.40;99.90
18207;DHT22;9229;52.354;20.886;2023-02-01T05:47:20;3.40;99.90
18207;DHT22;9229;52.354;20.886;2023-02-01T05:52:22;3.40;99.90
18207;DHT22;9229;52.354;20.886;2023-02-01T05:57:26;3.40;99.90
18207;DHT22;9229;52.354;20.886;2023-02-01T06:02:28;3.40;99.90
18207;DHT22;9229;52.354;20.886;2023-02-01T06:07:30;3.40;99.90
18207;DHT22;9229;52.354;20.886;2023-02-01T06:12:34;3.40;99.90
18207;DHT22;9229;52.354;20.886;2023-02-01T06:17:36;3.40;99.90
18207;DHT22;9229;52.354;20.886;2023-02-01T06:22:40;3.40;99.90
18207;DHT22;9229;52.354;20.886;2023-02-01T06:27:43;3.40;99.90
18207;DHT22;9229;52.354;20.886;2023-02-01T06:32:50;3.40;99.90
18207;DHT22;9229;52.354;20.886;2023-02-01T06:37:56;3.40;99.90
18207;DHT22;9229;52.354;20.886;2023-02-01T06:43:00;3.50;99.90
18207;DHT22;9229;52.354;20.886;2023-02-01T06:48:02;3.60;99.90
18207;DHT22;9229;52.354;20.886;2023-02-01T06:53:05;3.50;99.90
18207;DHT22;9229;52.354;20.886;2023-02-01T06:58:08;3.50;99.90
18207;DHT22;9229;52.354;20.886;2023-02-01T07:03:11;3.50;99.90
18207;DHT22;9229;52.354;20.886;2023-02-01T07:08:13;3.50;99.90
18207;DHT22;9229;52.354;20.886;2023-02-01T07:13:17;3.60;99.90
18207;DHT22;9229;52.354;20.886;2023-02-01T07:18:19;3.60;99.90
18207;DHT22;9229;52.354;20.886;2023-02-01T07:23:22;3.60;99.90
18207;DHT22;9229;52.354;20.886;2023-02-01T07:28:27;3.60;99.90
18207;DHT22;9229;52.354;20.886;2023-02-01T07:33:29;3.60;99.90
18207;DHT22;9229;52.354;20.886;2023-02-01T07:38:32;3.60;99.90
18207;DHT22;9229;52.354;20.886;2023-02-01T07:43:36;3.60;99.90
18207;DHT22;9229;52.354;20.886;2023-02-01T07:48:38;3.60;99.90
18207;DHT22;9229;52.354;20.886;2023-02-01T07:53:41;3.50;99.90
18207;DHT22;9229;52.354;20.886;2023-02-01T07:58:47;3.50;99.90
18207;DHT22;9229;52.354;20.886;2023-02-01T08:03:50;3.50;99.90
18207;DHT22;9229;52.354;20.886;2023-02-01T08:08:53;3.50;99.90
18207;DHT22;9229;52.354;20.886;2023-02-01T08:13:58;3.60;99.90
18207;DHT22;9229;52.354;20.886;2023-02-01T08:19:00;3.60;99.90
18207;DHT22;9229;52.354;20.886;2023-02-01T08:24:04;3.70;99.90
18207;DHT22;9229;52.354;20.886;2023-02-01T08:29:08;3.70;99.90
18207;DHT22;9229;52.354;20.886;2023-02-01T08:34:11;3.80;99.90
18207;DHT22;9229;52.354;20.886;2023-02-01T08:39:14;3.90;99.90
18207;DHT22;9229;52.354;20.886;2023-02-01T08:44:17;4.10;99.90
18207;DHT22;9229;52.354;20.886;2023-02-01T08:49:19;4.10;99.90
18207;DHT22;9229;52.354;20.886;2023-02-01T08:54:22;4.10;99.90
18207;DHT22;9229;52.354;20.886;2023-02-01T08:59:26;4.10;99.90
18207;DHT22;9229;52.354;20.886;2023-02-01T09:04:28;4.20;99.90
18207;DHT22;9229;52.354;20.886;2023-02-01T09:09:30;4.10;99.90
18207;DHT22;9229;52.354;20.886;2023-02-01T09:14:34;4.10;99.90
18207;DHT22;9229;52.354;20.886;2023-02-01T09:19:39;4.00;99.90
18207;DHT22;9229;52.354;20.886;2023-02-01T09:24:41;4.40;99.90
18207;DHT22;9229;52.354;20.886;2023-02-01T09:29:48;4.90;99.90
18207;DHT22;9229;52.354;20.886;2023-02-01T09:34:53;4.90;99.90
18207;DHT22;9229;52.354;20.886;2023-02-01T09:39:55;5.10;99.90
18207;DHT22;9229;52.354;20.886;2023-02-01T09:45:22;5.30;99.90
18207;DHT22;9229;52.354;20.886;2023-02-01T09:50:32;5.50;99.90
18207;DHT22;9229;52.354;20.886;2023-02-01T09:55:39;5.60;99.90
18207;DHT22;9229;52.354;20.886;2023-02-01T10:00:50;5.50;99.90
18207;DHT22;9229;52.354;20.886;2023-02-01T10:06:10;5.40;99.90
18207;DHT22;9229;52.354;20.886;2023-02-01T10:11:27;5.40;99.90
18207;DHT22;9229;52.354;20.886;2023-02-01T10:16:54;5.30;99.90
18207;DHT22;9229;52.354;20.886;2023-02-01T10:22:01;5.20;99.90
18207;DHT22;9229;52.354;20.886;2023-02-01T10:27:17;5.20;99.90
18207;DHT22;9229;52.354;20.886;2023-02-01T10:32:24;5.20;99.90
18207;DHT22;9229;52.354;20.886;2023-02-01T10:37:30;5.40;99.90
18207;DHT22;9229;52.354;20.886;2023-02-01T10:42:33;5.30;99.90
18207;DHT22;9229;52.354;20.886;2023-02-01T10:47:36;5.30;99.90
18207;DHT22;9229;52.354;20.886;2023-02-01T10:52:40;5.30;99.90
18207;DHT22;9229;52.354;20.886;2023-02-01T10:57:56;5.40;99.90
18207;DHT22;9229;52.354;20.886;2023-02-01T11:02:59;5.80;99.90
18207;DHT22;9229;52.354;20.886;2023-02-01T11:08:02;5.80;99.90
18207;DHT22;9229;52.354;20.886;2023-02-01T11:13:07;5.70;99.90
18207;DHT22;9229;52.354;20.886;2023-02-01T11:18:19;5.50;99.90
18207;DHT22;9229;52.354;20.886;2023-02-01T11:23:25;5.50;99.90
18207;DHT22;9229;52.354;20.886;2023-02-01T11:28:31;5.40;99.90
18207;DHT22;9229;52.354;20.886;2023-02-01T11:33:36;5.40;99.90
18207;DHT22;9229;52.354;20.886;2023-02-01T11:38:53;5.30;99.90
18207;DHT22;9229;52.354;20.886;2023-02-01T11:43:57;5.30;99.90
18207;DHT22;9229;52.354;20.886;2023-02-01T11:49:20;5.50;99.90
18207;DHT22;9229;52.354;20.886;2023-02-01T11:54:37;5.60;99.90
18207;DHT22;9229;52.354;20.886;2023-02-01T12:00:00;5.70;99.90
18207;DHT22;9229;52.354;20.886;2023-02-01T12:05:37;5.80;99.90
18207;DHT22;9229;52.354;20.886;2023-02-01T12:10:53;5.80;99.90
18207;DHT22;9229;52.354;20.886;2023-02-01T12:16:14;5.50;99.90
18207;DHT22;9229;52.354;20.886;2023-02-01T12:21:31;5.40;99.90
18207;DHT22;9229;52.354;20.886;2023-02-01T12:26:52;5.30;99.90
18207;DHT22;9229;52.354;20.886;2023-02-01T12:32:11;5.30;99.90
18207;DHT22;9229;52.354;20.886;2023-02-01T12:37:22;5.50;99.90
18207;DHT22;9229;52.354;20.886;2023-02-01T12:42:32;5.50;99.90
18207;DHT22;9229;52.354;20.886;2023-02-01T12:47:39;5.50;99.90
18207;DHT22;9229;52.354;20.886;2023-02-01T12:52:48;5.50;99.90
18207;DHT22;9229;52.354;20.886;2023-02-01T12:58:04;5.60;99.90
18207;DHT22;9229;52.354;20.886;2023-02-01T13:03:13;5.70;99.90
18207;DHT22;9229;52.354;20.886;2023-02-01T13:08:25;5.80;99.90
18207;DHT22;9229;52.354;20.886;2023-02-01T13:13:35;5.90;99.90
18207;DHT22;9229;52.354;20.886;2023-02-01T13:18:45;6.00;99.90
18207;DHT22;9229;52.354;20.886;2023-02-01T13:23:51;6.10;99.90
18207;DHT22;9229;52.354;20.886;2023-02-01T13:28:57;6.00;99.90
18207;DHT22;9229;52.354;20.886;2023-02-01T13:34:30;5.90;99.90
18207;DHT22;9229;52.354;20.886;2023-02-01T13:39:45;5.80;99.90
18207;DHT22;9229;52.354;20.886;2023-02-01T13:44:52;5.70;99.90
18207;DHT22;9229;52.354;20.886;2023-02-01T13:50:01;5.60;99.90
18207;DHT22;9229;52.354;20.886;2023-02-01T13:55:32;5.50;99.90
18207;DHT22;9229;52.354;20.886;2023-02-01T14:00:36;5.60;99.90
18207;DHT22;9229;52.354;20.886;2023-02-01T14:06:03;5.40;99.90
18207;DHT22;9229;52.354;20.886;2023-02-01T14:11:07;5.40;99.90
18207;DHT22;9229;52.354;20.886;2023-02-01T14:16:29;5.40;99.90
18207;DHT22;9229;52.354;20.886;2023-02-01T14:21:32;5.30;99.90
18207;DHT22;9229;52.354;20.886;2023-02-01T14:26:45;5.20;99.90
18207;DHT22;9229;52.354;20.886;2023-02-01T14:31:52;5.20;99.90
18207;DHT22;9229;52.354;20.886;2023-02-01T14:36:59;5.10;99.90
18207;DHT22;9229;52.354;20.886;2023-02-01T14:42:19;5.10;99.90
18207;DHT22;9229;52.354;20.886;2023-02-01T14:47:33;5.10;99.90
18207;DHT22;9229;52.354;20.886;2023-02-01T14:52:37;5.00;99.90
18207;DHT22;9229;52.354;20.886;2023-02-01T14:57:54;5.10;99.90
18207;DHT22;9229;52.354;20.886;2023-02-01T15:03:28;5.10;99.90
18207;DHT22;9229;52.354;20.886;2023-02-01T15:08:37;5.10;99.90
18207;DHT22;9229;52.354;20.886;2023-02-01T15:13:48;5.00;99.90
18207;DHT22;9229;52.354;20.886;2023-02-01T15:19:08;5.00;99.90
18207;DHT22;9229;52.354;20.886;2023-02-01T15:24:12;4.90;99.90
18207;DHT22;9229;52.354;20.886;2023-02-01T15:29:24;4.90;99.90
18207;DHT22;9229;52.354;20.886;2023-02-01T15:34:44;4.90;99.90
18207;DHT22;9229;52.354;20.886;2023-02-01T15:40:19;4.80;99.90
18207;DHT22;9229;52.354;20.886;2023-02-01T15:45:26;4.80;99.90
18207;DHT22;9229;52.354;20.886;2023-02-01T15:50:30;4.80;99.90
18207;DHT22;9229;52.354;20.886;2023-02-01T15:55:37;4.80;99.90
18207;DHT22;9229;52.354;20.886;2023-02-01T16:00:45;4.70;99.90
18207;DHT22;9229;52.354;20.886;2023-02-01T16:05:55;4.70;99.90
18207;DHT22;9229;52.354;20.886;2023-02-01T16:11:01;4.70;99.90
18207;DHT22;9229;52.354;20.886;2023-02-01T16:16:06;4.70;99.90
18207;DHT22;9229;52.354;20.886;2023-02-01T16:21:15;4.60;99.90
18207;DHT22;9229;52.354;20.886;2023-02-01T16:26:20;4.60;99.90
18207;DHT22;9229;52.354;20.886;2023-02-01T16:31:26;4.60;99.90
18207;DHT22;9229;52.354;20.886;2023-02-01T16:36:29;4.60;99.90
18207;DHT22;9229;52.354;20.886;2023-02-01T16:41:31;4.60;99.90
18207;DHT22;9229;52.354;20.886;2023-02-01T16:46:39;4.50;99.90
18207;DHT22;9229;52.354;20.886;2023-02-01T16:51:42;4.50;99.90
18207;DHT22;9229;52.354;20.886;2023-02-01T16:56:45;4.40;99.90
18207;DHT22;9229;52.354;20.886;2023-02-01T17:01:49;4.30;99.90
18207;DHT22;9229;52.354;20.886;2023-02-01T17:06:53;4.30;99.90
18207;DHT22;9229;52.354;20.886;2023-02-01T17:11:55;4.30;99.90
18207;DHT22;9229;52.354;20.886;2023-02-01T17:16:59;4.30;99.90
18207;DHT22;9229;52.354;20.886;2023-02-01T17:22:01;4.30;99.90
18207;DHT22;9229;52.354;20.886;2023-02-01T17:27:04;4.30;99.90
18207;DHT22;9229;52.354;20.886;2023-02-01T17:38:23;4.30;99.90
18207;DHT22;9229;52.354;20.886;2023-02-01T17:43:26;4.30;99.90
18207;DHT22;9229;52.354;20.886;2023-02-01T17:48:28;4.30;99.90
18207;DHT22;9229;52.354;20.886;2023-02-01T17:53:31;4.30;99.90
18207;DHT22;9229;52.354;20.886;2023-02-01T17:58:35;4.20;99.90
18207;DHT22;9229;52.354;20.886;2023-02-01T18:03:37;4.10;99.90
18207;DHT22;9229;52.354;20.886;2023-02-01T18:08:41;4.00;99.90
18207;DHT22;9229;52.354;20.886;2023-02-01T18:13:44;3.90;99.90
18207;DHT22;9229;52.354;20.886;2023-02-01T18:18:46;3.90;99.90
18207;DHT22;9229;52.354;20.886;2023-02-01T18:23:50;3.80;99.90
18207;DHT22;9229;52.354;20.886;2023-02-01T18:28:52;3.80;99.90
18207;DHT22;9229;52.354;20.886;2023-02-01T18:33:56;3.80;99.90
18207;DHT22;9229;52.354;20.886;2023-02-01T18:38:59;3.80;99.90
18207;DHT22;9229;52.354;20.886;2023-02-01T18:44:01;3.80;99.90
18207;DHT22;9229;52.354;20.886;2023-02-01T18:49:04;3.70;99.90
18207;DHT22;9229;52.354;20.886;2023-02-01T18:54:09;3.70;99.90
18207;DHT22;9229;52.354;20.886;2023-02-01T18:59:11;3.60;99.90
18207;DHT22;9229;52.354;20.886;2023-02-01T19:04:14;3.60;99.90
18207;DHT22;9229;52.354;20.886;2023-02-01T19:09:19;3.60;99.90
18207;DHT22;9229;52.354;20.886;2023-02-01T19:14:21;3.50;99.90
18207;DHT22;9229;52.354;20.886;2023-02-01T19:19:23;3.60;99.90
18207;DHT22;9229;52.354;20.886;2023-02-01T19:24:26;3.60;99.90
18207;DHT22;9229;52.354;20.886;2023-02-01T19:29:30;3.50;99.90
18207;DHT22;9229;52.354;20.886;2023-02-01T19:34:32;3.50;99.90
18207;DHT22;9229;52.354;20.886;2023-02-01T19:39:36;3.50;99.90
18207;DHT22;9229;52.354;20.886;2023-02-01T19:44:40;3.40;99.90
18207;DHT22;9229;52.354;20.886;2023-02-01T19:49:44;3.30;99.90
18207;DHT22;9229;52.354;20.886;2023-02-01T19:54:48;3.30;99.90
18207;DHT22;9229;52.354;20.886;2023-02-01T19:59:52;3.30;99.90
18207;DHT22;9229;52.354;20.886;2023-02-01T20:04:54;3.30;99.90
18207;DHT22;9229;52.354;20.886;2023-02-01T20:10:01;3.30;99.90
18207;DHT22;9229;52.354;20.886;2023-02-01T20:15:03;3.40;99.90
18207;DHT22;9229;52.354;20.886;2023-02-01T20:20:12;3.30;99.90
18207;DHT22;9229;52.354;20.886;2023-02-01T20:25:22;3.30;99.90
18207;DHT22;9229;52.354;20.886;2023-02-01T20:30:24;3.20;99.90
18207;DHT22;9229;52.354;20.886;2023-02-01T20:35:31;3.20;99.90
18207;DHT22;9229;52.354;20.886;2023-02-01T20:40:39;3.10;99.90
18207;DHT22;9229;52.354;20.886;2023-02-01T20:45:43;3.30;99.90
18207;DHT22;9229;52.354;20.886;2023-02-01T20:50:45;3.10;99.90
18207;DHT22;9229;52.354;20.886;2023-02-01T20:55:51;3.20;99.90
18207;DHT22;9229;52.354;20.886;2023-02-01T21:00:53;3.10;99.90
18207;DHT22;9229;52.354;20.886;2023-02-01T21:05:59;3.10;99.90
18207;DHT22;9229;52.354;20.886;2023-02-01T21:11:05;3.20;99.90
18207;DHT22;9229;52.354;20.886;2023-02-01T21:16:09;3.10;99.90
18207;DHT22;9229;52.354;20.886;2023-02-01T21:21:12;3.10;99.90
18207;DHT22;9229;52.354;20.886;2023-02-01T21:26:18;3.10;99.90
18207;DHT22;9229;52.354;20.886;2023-02-01T21:31:21;3.10;99.90
18207;DHT22;9229;52.354;20.886;2023-02-01T21:36:25;3.10;99.90
18207;DHT22;9229;52.354;20.886;2023-02-01T21:41:33;3.00;99.90
18207;DHT22;9229;52.354;20.886;2023-02-01T21:46:56;3.00;99.90
18207;DHT22;9229;52.354;20.886;2023-02-01T21:51:58;2.90;99.90
18207;DHT22;9229;52.354;20.886;2023-02-01T21:57:02;2.90;99.90
18207;DHT22;9229;52.354;20.886;2023-02-01T22:02:05;2.90;99.90
18207;DHT22;9229;52.354;20.886;2023-02-01T22:07:07;2.90;99.90
18207;DHT22;9229;52.354;20.886;2023-02-01T22:12:13;2.90;99.90
18207;DHT22;9229;52.354;20.886;2023-02-01T22:17:15;3.00;99.90
18207;DHT22;9229;52.354;20.886;2023-02-01T22:22:19;3.00;99.90
18207;DHT22;9229;52.354;20.886;2023-02-01T22:27:25;3.10;99.90
18207;DHT22;9229;52.354;20.886;2023-02-01T22:32:27;3.10;99.90
18207;DHT22;9229;52.354;20.886;2023-02-01T22:37:31;3.10;99.90
18207;DHT22;9229;52.354;20.886;2023-02-01T22:42:34;3.10;99.90
18207;DHT22;9229;52.354;20.886;2023-02-01T22:47:36;3.20;99.90
18207;DHT22;9229;52.354;20.886;2023-02-01T22:52:38;3.20;99.90
18207;DHT22;9229;52.354;20.886;2023-02-01T22:57:41;3.20;99.90
18207;DHT22;9229;52.354;20.886;2023-02-01T23:02:43;3.20;99.90
18207;DHT22;9229;52.354;20.886;2023-02-01T23:07:46;3.10;99.90
18207;DHT22;9229;52.354;20.886;2023-02-01T23:12:49;3.10;99.90
18207;DHT22;9229;52.354;20.886;2023-02-01T23:17:51;3.00;99.90
18207;DHT22;9229;52.354;20.886;2023-02-01T23:22:53;3.00;99.90
18207;DHT22;9229;52.354;20.886;2023-02-01T23:27:57;3.00;99.90
18207;DHT22;9229;52.354;20.886;2023-02-01T23:32:59;3.00;99.90
18207;DHT22;9229;52.354;20.886;2023-02-01T23:38:01;2.90;99.90
18207;DHT22;9229;52.354;20.886;2023-02-01T23:43:04;2.90;99.90
18207;DHT22;9229;52.354;20.886;2023-02-01T23:48:26;2.90;99.90
18207;DHT22;9229;52.354;20.886;2023-02-01T23:53:28;2.90;99.90
18207;DHT22;9229;52.354;20.886;2023-02-01T23:58:32;2.90;99.90
